map of KDA home
KDA - Airport
Location
City:  Kolda, Kolda, Senegal
Name:Saré Bidji Airport
Old (Alt.):Kolda North Airport
ICAO:GOGK
IATA:KDA

Details
Type:Airport (Aerodrome, Airfield)
Latitude:12°53'55"N (12.898508)
Longitude:14°58'05"W (-14.968110)
Datum:WGS 1984
Elevation:33 ft (10 m)
Variation:6.61°W (WMM2015 magnetic declination)
0.11° annual change
Runways:1
Longest:4927 × 50 ft (1502 × 15 m), paved

Time
Time Zone:UTC+0
Local Time:

Weather
METAR:GOGK 210000Z VRB02KT 8000 NSC 23/21 Q1012

Related Locations
Nearby:
Farthest:TOH: 12335 mi / 19852 km
Loh/Linua [Torres Airstrip], Linua Island, TOB, VU

Find:

   beyond  
but within

Other Information
Maps:
NOTAMs:
Links:
Sources:

  
  • flag of Senegal
  

Sectional Chart

Flight Planning
at skyvector.com

Satellite Image

Google Maps Satellite view

 

Copyright © 2004-2018 Karl L. Swartz. All rights reserved.
The Great Circle Mapper name and logo are trademarks of the Great Circle Mapper.
All other trademarks mentioned herein belong to their respective owners.
Please see credits for attibutions and further copyright information.

  Follow gcmap on Facebook Follow gcmap on Twitter Follow gcmap on Google+ GCmap on LinkedIn

hCard Microformat

Geo Microformat